createdAt,value
2023-04-20T00:01:26.206Z,8.71
2023-04-20T00:03:53.509Z,8.70
2023-04-20T00:06:21.889Z,8.70
2023-04-20T00:08:48.965Z,8.68
2023-04-20T00:11:16.100Z,8.70
2023-04-20T00:13:43.083Z,8.68
2023-04-20T00:16:09.962Z,8.67
2023-04-20T00:18:37.086Z,8.64
2023-04-20T00:21:04.115Z,8.64
2023-04-20T00:23:31.082Z,8.65
2023-04-20T00:25:57.877Z,8.63
2023-04-20T00:28:24.723Z,8.62
2023-04-20T00:30:51.513Z,8.59
2023-04-20T00:33:18.464Z,8.61
2023-04-20T00:35:45.385Z,8.57
2023-04-20T00:38:12.330Z,8.58
2023-04-20T00:40:39.189Z,8.56
2023-04-20T00:43:13.272Z,8.55
2023-04-20T00:45:40.400Z,8.55
2023-04-20T00:48:07.657Z,8.57
2023-04-20T00:50:35.038Z,8.52
2023-04-20T00:53:02.873Z,8.56
2023-04-20T00:55:30.843Z,8.52
2023-04-20T00:57:58.335Z,8.53
2023-04-20T01:00:26.494Z,8.50
2023-04-20T01:02:53.445Z,8.49
2023-04-20T01:05:21.724Z,8.46
2023-04-20T01:07:49.251Z,8.45
2023-04-20T01:10:16.348Z,8.41
2023-04-20T01:12:43.251Z,8.37
2023-04-20T01:15:11.312Z,8.41
2023-04-20T01:17:39.945Z,8.39
2023-04-20T01:20:15.069Z,8.38
2023-04-20T01:22:46.793Z,8.34
2023-04-20T01:25:14.126Z,8.34
2023-04-20T01:27:40.913Z,8.33
2023-04-20T01:30:08.643Z,8.33
2023-04-20T01:32:37.756Z,8.32
2023-04-20T01:35:05.953Z,8.30
2023-04-20T01:37:32.961Z,8.31
2023-04-20T01:40:03.856Z,8.31
2023-04-20T01:42:30.956Z,8.30
2023-04-20T01:44:58.200Z,8.32
2023-04-20T01:47:25.043Z,8.27
2023-04-20T01:49:51.906Z,8.27
2023-04-20T01:52:18.828Z,8.27
2023-04-20T01:54:45.778Z,8.27
2023-04-20T01:57:12.821Z,8.27
2023-04-20T01:59:39.926Z,8.22
2023-04-20T02:02:07.254Z,8.21
2023-04-20T02:04:34.298Z,8.19
2023-04-20T02:07:01.277Z,8.19
2023-04-20T02:09:28.727Z,8.18
2023-04-20T02:11:56.908Z,8.16
2023-04-20T02:14:23.740Z,8.14
2023-04-20T02:16:53.195Z,8.15
2023-04-20T02:19:20.114Z,8.14
2023-04-20T02:21:47.082Z,8.12
2023-04-20T02:24:14.028Z,8.09
2023-04-20T02:26:40.861Z,8.08
2023-04-20T02:29:07.613Z,8.05
2023-04-20T02:31:34.592Z,8.05
2023-04-20T02:34:01.529Z,8.03
2023-04-20T02:36:28.371Z,8.04
2023-04-20T02:38:55.142Z,8.02
2023-04-20T02:41:22.017Z,8.00
2023-04-20T02:43:49.204Z,8.02
2023-04-20T02:46:16.419Z,8.00
2023-04-20T02:48:43.710Z,7.98
2023-04-20T02:51:11.129Z,7.98
2023-04-20T02:53:42.709Z,7.93
2023-04-20T02:56:18.500Z,7.96
2023-04-20T02:58:52.210Z,7.93
2023-04-20T03:01:22.907Z,7.91
2023-04-20T03:03:55.238Z,7.90
2023-04-20T03:06:22.332Z,7.89
2023-04-20T03:08:54.560Z,7.89
2023-04-20T03:11:51.144Z,7.87
2023-04-20T03:14:42.559Z,7.87
2023-04-20T03:17:09.489Z,7.83
2023-04-20T03:19:36.853Z,7.83
2023-04-20T03:22:04.864Z,7.83
2023-04-20T03:24:34.488Z,7.83
2023-04-20T03:27:09.835Z,7.77
2023-04-20T03:29:48.917Z,7.76
2023-04-20T03:32:16.745Z,7.72
2023-04-20T03:34:43.570Z,7.72
2023-04-20T03:37:10.514Z,7.72
2023-04-20T03:39:37.269Z,7.72
2023-04-20T03:42:04.306Z,7.72
2023-04-20T03:44:31.149Z,7.68
2023-04-20T03:46:58.092Z,7.65
2023-04-20T03:49:25.578Z,7.69
2023-04-20T03:51:52.440Z,7.69
2023-04-20T03:54:19.260Z,7.65
2023-04-20T03:56:46.537Z,7.67
2023-04-20T03:59:13.879Z,7.65
2023-04-20T04:01:44.167Z,7.63
2023-04-20T04:04:11.345Z,7.64
2023-04-20T04:06:38.312Z,7.63
2023-04-20T04:09:05.340Z,7.61
2023-04-20T04:11:32.281Z,7.61
2023-04-20T04:13:59.600Z,7.60
2023-04-20T04:16:28.099Z,7.60
2023-04-20T04:18:55.286Z,7.60
2023-04-20T04:21:22.126Z,7.55
2023-04-20T04:23:55.175Z,7.53
2023-04-20T04:26:36.748Z,7.49
2023-04-20T04:29:04.637Z,7.49
2023-04-20T04:31:32.989Z,7.48
2023-04-20T04:34:05.268Z,7.45
2023-04-20T04:36:46.043Z,7.48
2023-04-20T04:39:16.698Z,7.45
2023-04-20T04:41:52.838Z,7.43
2023-04-20T04:44:28.897Z,7.35
2023-04-20T04:46:56.043Z,7.40
2023-04-20T04:49:26.740Z,7.38
2023-04-20T04:51:53.626Z,7.41
2023-04-20T04:54:20.362Z,7.41
2023-04-20T04:56:47.328Z,7.39
2023-04-20T04:59:14.161Z,7.38
2023-04-20T05:01:41.029Z,7.38
2023-04-20T05:04:08.175Z,7.42
2023-04-20T05:06:35.490Z,7.41
2023-04-20T05:09:02.302Z,7.40
2023-04-20T05:11:29.172Z,7.41
2023-04-20T05:13:55.949Z,7.43
2023-04-20T05:16:22.944Z,7.40
2023-04-20T05:18:49.692Z,7.38
2023-04-20T05:21:16.651Z,7.35
2023-04-20T05:23:44.254Z,7.38
2023-04-20T05:26:11.251Z,7.41
2023-04-20T05:28:38.028Z,7.43
2023-04-20T05:31:05.260Z,7.46
2023-04-20T05:33:32.178Z,7.47
2023-04-20T05:35:59.226Z,7.42
2023-04-20T05:38:26.618Z,7.44
2023-04-20T05:40:53.528Z,7.39
2023-04-20T05:43:20.510Z,7.37
2023-04-20T05:45:48.789Z,7.38
2023-04-20T05:48:15.634Z,7.37
2023-04-20T05:50:42.537Z,7.37
2023-04-20T05:53:09.391Z,7.34
2023-04-20T05:55:36.372Z,7.34
2023-04-20T05:58:03.321Z,7.38
2023-04-20T06:00:30.315Z,7.33
2023-04-20T06:02:57.289Z,7.34
2023-04-20T06:05:24.508Z,7.35
2023-04-20T06:07:51.367Z,7.39
2023-04-20T06:10:18.416Z,7.39
2023-04-20T06:12:45.475Z,7.41
2023-04-20T06:15:12.419Z,7.40
2023-04-20T06:17:41.122Z,7.35
2023-04-20T06:20:10.538Z,7.40
2023-04-20T06:22:42.397Z,7.43
2023-04-20T06:25:10.604Z,7.44
2023-04-20T06:27:37.472Z,7.41
2023-04-20T06:30:05.062Z,7.44
2023-04-20T06:32:31.928Z,7.41
2023-04-20T06:34:58.908Z,7.45
2023-04-20T06:37:25.749Z,7.43
2023-04-20T06:39:55.610Z,7.46
2023-04-20T06:42:22.947Z,7.47
2023-04-20T06:44:50.374Z,7.45
2023-04-20T06:47:17.129Z,7.46
2023-04-20T06:49:44.054Z,7.47
2023-04-20T06:52:10.820Z,7.44
2023-04-20T06:54:37.583Z,7.48
2023-04-20T06:57:04.547Z,7.49
2023-04-20T06:59:31.416Z,7.50
2023-04-20T07:01:58.270Z,7.47
2023-04-20T07:04:25.461Z,7.49
2023-04-20T07:06:54.123Z,7.62
2023-04-20T07:09:23.061Z,7.98
2023-04-20T07:11:50.068Z,7.71
2023-04-20T07:14:16.994Z,7.64
2023-04-20T07:16:43.914Z,7.64
2023-04-20T07:19:10.878Z,7.67
2023-04-20T07:21:37.620Z,7.65
2023-04-20T07:24:04.707Z,7.68
2023-04-20T07:26:31.599Z,7.68
2023-04-20T07:28:58.425Z,7.69
2023-04-20T07:31:25.490Z,7.72
2023-04-20T07:33:52.562Z,7.74
2023-04-20T07:36:20.406Z,7.76
2023-04-20T07:38:47.252Z,7.79
2023-04-20T07:41:14.200Z,7.78
2023-04-20T07:43:41.088Z,7.81
2023-04-20T07:46:08.250Z,7.81
2023-04-20T07:48:35.351Z,7.86
2023-04-20T07:51:02.289Z,7.85
2023-04-20T07:53:29.572Z,7.87
2023-04-20T07:55:56.417Z,7.87
2023-04-20T07:58:23.425Z,7.91
2023-04-20T08:00:50.371Z,7.90
2023-04-20T08:03:17.421Z,7.91
2023-04-20T08:05:44.546Z,7.96
2023-04-20T08:08:11.449Z,7.93
2023-04-20T08:10:38.250Z,7.94
2023-04-20T08:13:05.344Z,7.99
2023-04-20T08:15:32.288Z,7.98
2023-04-20T08:17:59.294Z,7.99
2023-04-20T08:20:26.222Z,8.00
2023-04-20T08:22:53.434Z,8.00
2023-04-20T08:25:20.337Z,8.02
2023-04-20T08:27:47.409Z,8.05
2023-04-20T08:30:14.408Z,8.06
2023-04-20T08:32:41.323Z,8.09
2023-04-20T08:35:08.829Z,8.11
2023-04-20T08:37:37.489Z,8.11
2023-04-20T08:40:05.734Z,8.12
2023-04-20T08:42:32.679Z,8.13
2023-04-20T08:45:00.000Z,8.15
2023-04-20T08:47:28.247Z,8.14
2023-04-20T08:49:56.735Z,8.15
2023-04-20T08:52:23.679Z,8.17
2023-04-20T08:54:56.924Z,8.18
2023-04-20T08:57:26.037Z,8.20
2023-04-20T08:59:53.390Z,8.24
2023-04-20T09:02:20.899Z,8.23
2023-04-20T09:04:49.437Z,8.24
2023-04-20T09:07:21.569Z,8.27
2023-04-20T09:09:59.128Z,8.30
2023-04-20T09:12:27.036Z,8.29
2023-04-20T09:14:54.351Z,8.30
2023-04-20T09:17:33.373Z,8.33
2023-04-20T09:20:00.552Z,8.34
2023-04-20T09:22:35.150Z,8.36
2023-04-20T09:25:19.104Z,8.38
2023-04-20T09:28:00.466Z,8.43
2023-04-20T09:30:47.378Z,8.42
2023-04-20T09:33:14.936Z,8.44
2023-04-20T09:35:43.252Z,8.48
2023-04-20T09:38:12.206Z,8.48
2023-04-20T09:40:39.061Z,8.47
2023-04-20T09:43:20.145Z,8.57
2023-04-20T09:45:47.410Z,8.59
2023-04-20T09:48:19.020Z,8.58
2023-04-20T09:50:50.004Z,8.60
2023-04-20T09:53:19.007Z,8.61
2023-04-20T09:55:48.483Z,8.63
2023-04-20T09:58:19.558Z,8.64
2023-04-20T10:00:46.396Z,8.64
2023-04-20T10:03:17.543Z,8.61
2023-04-20T10:05:44.752Z,8.61
2023-04-20T10:08:11.716Z,8.59
2023-04-20T10:10:47.146Z,8.60
2023-04-20T10:13:14.962Z,8.57
2023-04-20T10:15:42.628Z,8.59
2023-04-20T10:18:20.429Z,8.58
2023-04-20T10:20:47.589Z,8.56
2023-04-20T10:23:16.149Z,8.52
2023-04-20T10:25:45.371Z,8.55
2023-04-20T10:28:12.236Z,8.56
2023-04-20T10:30:50.986Z,8.55
2023-04-20T10:33:18.450Z,8.56
2023-04-20T10:35:53.081Z,8.56
2023-04-20T10:38:36.899Z,8.56
2023-04-20T10:41:11.031Z,8.57
2023-04-20T10:43:44.325Z,8.60
2023-04-20T10:46:21.887Z,8.57
2023-04-20T10:48:55.958Z,8.59
2023-04-20T10:51:23.904Z,8.57
2023-04-20T10:54:06.063Z,8.57
2023-04-20T10:56:43.046Z,8.59
2023-04-20T10:59:12.095Z,8.58
2023-04-20T11:01:41.413Z,8.56
2023-04-20T11:04:10.521Z,8.53
2023-04-20T11:06:42.015Z,8.55
2023-04-20T11:09:22.770Z,8.55
2023-04-20T11:12:06.594Z,8.55
2023-04-20T11:14:35.561Z,8.56
2023-04-20T11:17:02.516Z,8.57
2023-04-20T11:19:34.696Z,8.56
2023-04-20T11:22:03.287Z,8.56
2023-04-20T11:24:32.830Z,8.60
2023-04-20T11:27:02.018Z,8.61
2023-04-20T11:29:39.500Z,8.61
2023-04-20T11:32:10.687Z,8.59
2023-04-20T11:34:39.211Z,8.58
2023-04-20T11:37:11.738Z,8.58
2023-04-20T11:39:38.969Z,8.61
2023-04-20T11:42:06.310Z,8.61
2023-04-20T11:44:34.535Z,8.64
2023-04-20T11:47:01.943Z,8.65
2023-04-20T11:49:29.427Z,8.66
2023-04-20T11:51:56.319Z,8.66
2023-04-20T11:54:24.192Z,8.67
2023-04-20T11:56:51.473Z,8.66
2023-04-20T11:59:20.487Z,8.67
2023-04-20T12:01:48.117Z,8.68
2023-04-20T12:04:16.355Z,8.71
2023-04-20T12:06:44.368Z,8.70
2023-04-20T12:09:11.295Z,8.71
2023-04-20T12:11:38.125Z,8.74
2023-04-20T12:14:05.225Z,8.73
2023-04-20T12:16:32.190Z,8.74
2023-04-20T12:18:59.216Z,8.75
2023-04-20T12:21:26.035Z,8.76
2023-04-20T12:23:53.048Z,8.78
2023-04-20T12:26:19.895Z,8.80
2023-04-20T12:28:46.766Z,8.79
2023-04-20T12:31:13.575Z,8.79
2023-04-20T12:33:40.719Z,8.80
2023-04-20T12:36:07.670Z,8.80
2023-04-20T12:38:34.635Z,8.85
2023-04-20T12:41:01.448Z,8.88
2023-04-20T12:43:28.755Z,8.89
2023-04-20T12:45:55.544Z,8.90
2023-04-20T12:48:22.661Z,8.91
2023-04-20T12:50:50.795Z,8.95
2023-04-20T12:53:17.824Z,8.96
2023-04-20T12:55:44.605Z,8.96
2023-04-20T12:58:11.527Z,8.97
2023-04-20T13:00:38.423Z,8.98
2023-04-20T13:03:05.412Z,8.98
2023-04-20T13:05:32.267Z,9.01
2023-04-20T13:07:59.272Z,9.01
2023-04-20T13:10:26.175Z,9.05
2023-04-20T13:12:53.111Z,9.05
2023-04-20T13:15:37.878Z,9.03
2023-04-20T13:18:06.104Z,9.03
2023-04-20T13:20:33.260Z,9.05
2023-04-20T13:23:01.311Z,9.06
2023-04-20T13:25:30.048Z,9.09
2023-04-20T13:27:57.773Z,9.10
2023-04-20T13:30:24.954Z,9.10
2023-04-20T13:32:52.287Z,9.11
2023-04-20T13:35:19.326Z,9.12
2023-04-20T13:37:46.388Z,9.11
2023-04-20T13:40:13.883Z,9.14
2023-04-20T13:42:40.924Z,9.14
2023-04-20T13:45:08.684Z,9.17
2023-04-20T13:47:37.088Z,9.20
2023-04-20T13:50:04.302Z,9.22
2023-04-20T13:52:31.312Z,9.20
2023-04-20T13:54:58.569Z,9.22
2023-04-20T13:57:25.448Z,9.21
2023-04-20T13:59:53.074Z,9.22
2023-04-20T14:02:20.175Z,9.23
2023-04-20T14:04:47.167Z,9.23
2023-04-20T14:07:14.052Z,9.25
2023-04-20T14:09:40.796Z,9.29
2023-04-20T14:12:07.828Z,9.30
2023-04-20T14:14:34.644Z,9.30
2023-04-20T14:17:02.032Z,9.30
2023-04-20T14:19:28.903Z,9.32
2023-04-20T14:21:55.820Z,9.35
2023-04-20T14:24:22.626Z,9.39
2023-04-20T14:26:51.425Z,9.39
2023-04-20T14:29:18.355Z,9.42
2023-04-20T14:31:45.383Z,9.40
2023-04-20T14:34:13.229Z,9.42
2023-04-20T14:36:40.188Z,9.44
2023-04-20T14:39:06.983Z,9.41
2023-04-20T14:41:34.420Z,9.39
2023-04-20T14:44:01.259Z,9.42
2023-04-20T14:46:28.149Z,9.45
2023-04-20T14:48:54.959Z,9.45
2023-04-20T14:51:21.789Z,9.45
2023-04-20T14:53:48.621Z,9.45
2023-04-20T14:56:15.606Z,9.46
2023-04-20T14:58:42.542Z,9.49
2023-04-20T15:01:09.521Z,9.50
2023-04-20T15:03:36.666Z,9.49
2023-04-20T15:06:03.970Z,9.46
2023-04-20T15:08:30.799Z,9.48
2023-04-20T15:10:58.590Z,9.48
2023-04-20T15:13:26.102Z,9.50
2023-04-20T15:15:55.040Z,9.46
2023-04-20T15:18:22.544Z,9.46
2023-04-20T15:20:52.395Z,9.50
2023-04-20T15:23:19.878Z,9.48
2023-04-20T15:25:46.738Z,9.47
2023-04-20T15:28:13.733Z,9.49
2023-04-20T15:30:41.020Z,9.50
2023-04-20T15:33:08.160Z,9.50
2023-04-20T15:35:35.439Z,9.49
2023-04-20T15:38:03.164Z,9.50
2023-04-20T15:40:30.127Z,9.51
2023-04-20T15:42:56.996Z,9.51
2023-04-20T15:45:23.886Z,9.52
2023-04-20T15:47:51.455Z,9.55
2023-04-20T15:50:18.550Z,9.53
2023-04-20T15:52:45.865Z,9.51
2023-04-20T15:55:12.795Z,9.52
2023-04-20T15:57:39.705Z,9.54
2023-04-20T16:00:08.370Z,9.52
2023-04-20T16:02:38.522Z,9.54
2023-04-20T16:05:07.147Z,9.53
2023-04-20T16:07:33.977Z,9.53
2023-04-20T16:10:02.230Z,9.53
2023-04-20T16:12:29.325Z,9.52
2023-04-20T16:14:57.302Z,9.52
2023-04-20T16:17:24.396Z,9.54
2023-04-20T16:19:51.379Z,9.54
2023-04-20T16:22:18.281Z,9.50
2023-04-20T16:24:45.345Z,9.53
2023-04-20T16:27:12.283Z,9.53
2023-04-20T16:29:39.089Z,9.54
2023-04-20T16:32:06.672Z,9.55
2023-04-20T16:34:33.567Z,9.56
2023-04-20T16:37:00.756Z,9.56
2023-04-20T16:39:27.545Z,9.91
2023-04-20T16:41:54.691Z,9.85
2023-04-20T16:44:21.630Z,9.79
2023-04-20T16:46:51.150Z,9.76
2023-04-20T16:49:18.630Z,9.76
2023-04-20T16:51:45.655Z,9.75
2023-04-20T16:54:13.094Z,9.74
2023-04-20T16:56:40.715Z,9.71
2023-04-20T16:59:08.052Z,9.69
2023-04-20T17:01:35.259Z,9.67
2023-04-20T17:04:02.569Z,9.67
2023-04-20T17:06:29.608Z,9.65
2023-04-20T17:09:01.431Z,9.65
2023-04-20T17:11:28.354Z,9.61
2023-04-20T17:13:55.293Z,9.62
2023-04-20T17:16:22.209Z,9.61
2023-04-20T17:18:49.028Z,9.60
2023-04-20T17:21:15.934Z,9.60
2023-04-20T17:23:42.800Z,9.57
2023-04-20T17:26:09.715Z,9.57
2023-04-20T17:28:36.483Z,9.56
2023-04-20T17:31:03.350Z,9.54
2023-04-20T17:33:30.317Z,9.55
2023-04-20T17:35:57.291Z,9.55
2023-04-20T17:38:24.538Z,9.55
2023-04-20T17:40:51.617Z,9.53
2023-04-20T17:43:19.064Z,9.53
2023-04-20T17:45:48.989Z,9.52
2023-04-20T17:48:16.214Z,9.53
2023-04-20T17:50:43.174Z,9.50
2023-04-20T17:53:10.034Z,9.50
2023-04-20T17:55:36.949Z,9.49
2023-04-20T17:58:03.889Z,9.62
2023-04-20T18:00:30.893Z,9.70
2023-04-20T18:02:59.083Z,9.65
2023-04-20T18:05:27.056Z,9.59
2023-04-20T18:07:53.915Z,9.54
2023-04-20T18:10:20.859Z,9.52
2023-04-20T18:12:47.700Z,9.51
2023-04-20T18:15:14.786Z,9.50
2023-04-20T18:17:42.581Z,9.47
2023-04-20T18:20:10.296Z,9.48
2023-04-20T18:22:37.428Z,9.48
2023-04-20T18:25:04.828Z,9.45
2023-04-20T18:27:31.827Z,9.44
2023-04-20T18:29:59.921Z,9.41
2023-04-20T18:32:27.430Z,9.38
2023-04-20T18:34:54.358Z,9.40
2023-04-20T18:37:21.257Z,9.39
2023-04-20T18:39:48.219Z,9.39
2023-04-20T18:42:15.301Z,9.36
2023-04-20T18:44:42.308Z,9.34
2023-04-20T18:47:09.201Z,9.35
2023-04-20T18:49:36.465Z,9.31
2023-04-20T18:52:03.350Z,9.30
2023-04-20T18:54:30.213Z,9.31
2023-04-20T18:56:57.007Z,9.33
2023-04-20T18:59:24.807Z,9.30
2023-04-20T19:01:52.506Z,9.27
2023-04-20T19:04:20.258Z,9.25
2023-04-20T19:06:47.489Z,9.29
2023-04-20T19:09:15.011Z,9.24
2023-04-20T19:11:42.398Z,9.25
2023-04-20T19:14:10.172Z,9.24
2023-04-20T19:16:37.291Z,9.21
2023-04-20T19:19:05.840Z,9.21
2023-04-20T19:21:33.469Z,9.21
2023-04-20T19:24:01.568Z,9.19
2023-04-20T19:26:28.821Z,9.18
2023-04-20T19:28:58.541Z,9.18
2023-04-20T19:31:26.850Z,9.16
2023-04-20T19:33:55.874Z,9.15
2023-04-20T19:36:24.118Z,9.15
2023-04-20T19:38:50.904Z,9.12
2023-04-20T19:41:17.851Z,9.12
2023-04-20T19:43:44.638Z,9.18
2023-04-20T19:46:11.779Z,9.24
2023-04-20T19:48:38.655Z,9.21
2023-04-20T19:51:06.763Z,9.16
2023-04-20T19:53:34.065Z,9.15
2023-04-20T19:56:01.039Z,9.10
2023-04-20T19:58:27.983Z,9.06
2023-04-20T20:00:54.873Z,9.03
2023-04-20T20:03:22.542Z,9.02
2023-04-20T20:05:49.592Z,9.00
2023-04-20T20:08:16.883Z,8.97
2023-04-20T20:10:43.896Z,8.98
2023-04-20T20:13:10.745Z,8.97
2023-04-20T20:15:37.948Z,8.95
2023-04-20T20:18:06.027Z,8.98
2023-04-20T20:20:33.066Z,8.98
2023-04-20T20:23:00.183Z,8.96
2023-04-20T20:25:27.114Z,8.95
2023-04-20T20:27:54.470Z,8.92
2023-04-20T20:30:21.829Z,8.93
2023-04-20T20:32:48.745Z,8.92
2023-04-20T20:35:16.422Z,8.92
2023-04-20T20:37:45.444Z,8.93
2023-04-20T20:40:15.329Z,8.91
2023-04-20T20:42:42.894Z,8.90
2023-04-20T20:45:12.553Z,8.89
2023-04-20T20:47:44.190Z,8.88
2023-04-20T20:50:12.834Z,8.89
2023-04-20T20:52:39.784Z,8.90
2023-04-20T20:55:08.252Z,8.89
2023-04-20T20:57:35.435Z,8.87
2023-04-20T21:00:02.793Z,8.89
2023-04-20T21:02:29.849Z,8.90
2023-04-20T21:04:56.793Z,8.91
2023-04-20T21:07:23.591Z,8.94
2023-04-20T21:09:50.762Z,8.88
2023-04-20T21:12:17.516Z,8.92
2023-04-20T21:14:44.455Z,8.90
2023-04-20T21:17:11.237Z,8.90
2023-04-20T21:19:38.199Z,8.89
2023-04-20T21:22:04.954Z,8.89
2023-04-20T21:24:31.928Z,8.92
2023-04-20T21:26:58.691Z,8.89
2023-04-20T21:29:25.592Z,8.86
2023-04-20T21:31:53.002Z,8.87
2023-04-20T21:34:19.971Z,8.87
2023-04-20T21:36:46.771Z,8.86
2023-04-20T21:39:13.708Z,8.85
2023-04-20T21:41:40.580Z,8.85
2023-04-20T21:44:07.522Z,8.82
2023-04-20T21:46:34.389Z,8.81
2023-04-20T21:49:01.250Z,8.83
2023-04-20T21:51:28.081Z,8.83
2023-04-20T21:53:54.934Z,8.83
2023-04-20T21:56:21.812Z,8.81
2023-04-20T21:58:49.056Z,8.82
2023-04-20T22:01:16.076Z,8.79
2023-04-20T22:03:43.088Z,8.78
2023-04-20T22:06:10.133Z,8.76
2023-04-20T22:08:39.841Z,8.75
2023-04-20T22:11:07.352Z,8.75
2023-04-20T22:13:35.652Z,8.75
2023-04-20T22:16:02.484Z,8.74
2023-04-20T22:18:29.600Z,8.76
2023-04-20T22:20:56.436Z,8.76
2023-04-20T22:23:23.313Z,8.76
2023-04-20T22:25:50.127Z,8.73
2023-04-20T22:28:17.074Z,8.72
2023-04-20T22:30:43.914Z,8.72
2023-04-20T22:33:10.880Z,8.72
2023-04-20T22:35:37.845Z,8.71
2023-04-20T22:38:04.745Z,8.72
2023-04-20T22:40:31.585Z,8.73
2023-04-20T22:42:58.532Z,8.76
2023-04-20T22:45:25.542Z,8.72
2023-04-20T22:47:52.546Z,8.75
2023-04-20T22:50:19.650Z,8.73
2023-04-20T22:52:46.927Z,8.70
2023-04-20T22:55:14.416Z,8.71
2023-04-20T22:57:41.282Z,8.66
2023-04-20T23:00:10.833Z,8.67
2023-04-20T23:02:38.125Z,8.70
2023-04-20T23:05:05.993Z,8.71
2023-04-20T23:07:33.390Z,8.70
2023-04-20T23:10:01.492Z,8.70
2023-04-20T23:12:32.409Z,8.67
2023-04-20T23:15:02.273Z,8.64
2023-04-20T23:17:29.216Z,8.63
2023-04-20T23:19:56.446Z,8.65
2023-04-20T23:22:23.572Z,8.64
2023-04-20T23:24:50.771Z,8.62
2023-04-20T23:27:17.674Z,8.62
2023-04-20T23:29:44.935Z,8.63
2023-04-20T23:32:12.001Z,8.62
2023-04-20T23:34:38.819Z,8.63
2023-04-20T23:37:06.189Z,8.61
2023-04-20T23:39:39.415Z,8.57
2023-04-20T23:42:06.262Z,8.58
2023-04-20T23:44:33.151Z,8.60
2023-04-20T23:46:59.982Z,8.59
2023-04-20T23:49:26.889Z,8.57
2023-04-20T23:51:53.775Z,8.56
2023-04-20T23:54:20.556Z,8.56
2023-04-20T23:56:47.456Z,8.58
2023-04-20T23:59:14.300Z,8.57
